Time;durP1;ratioP1;P1;durP2;ratioP2;P2;SDS_P1;SDS_P2;PMS_P1;PMS_P2;Temp;Humidity;BMP_temperature;BMP_pressure;BME280_temperature;BME280_humidity;BME280_pressure;Samples;Min_cycle;Max_cycle;Signal;HPM_P1;HPM_P2
2023/08/08 00:02:06;;;;;;;21.52;13.77;;;;;;;13.14;100.00;101359.88;5093479;28;20036;-67
2023/08/08 00:04:31;;;;;;;19.88;13.77;;;;;;;13.16;100.00;101345.69;5095018;28;20049;-67
2023/08/08 00:06:57;;;;;;;19.38;13.75;;;;;;;13.15;100.00;101347.63;5093474;28;20150;-68
2023/08/08 00:09:22;;;;;;;20.40;14.07;;;;;;;13.15;100.00;101347.63;5094821;28;20360;-68
2023/08/08 00:11:48;;;;;;;19.40;13.55;;;;;;;13.15;100.00;101344.06;5094740;28;20141;-68
2023/08/08 00:14:14;;;;;;;22.27;13.27;;;;;;;13.15;100.00;101350.41;5094975;28;20032;-68
2023/08/08 00:16:40;;;;;;;20.40;13.80;;;;;;;13.13;100.00;101347.13;5094733;28;20035;-67
2023/08/08 00:19:05;;;;;;;19.67;13.13;;;;;;;13.14;100.00;101351.56;5094654;28;20333;-68
2023/08/08 00:21:30;;;;;;;20.40;13.20;;;;;;;13.15;100.00;101346.84;5094598;28;20441;-68
2023/08/08 00:23:56;;;;;;;21.38;13.40;;;;;;;13.16;100.00;101357.63;5094382;28;20028;-67
2023/08/08 00:26:21;;;;;;;20.55;13.05;;;;;;;13.17;100.00;101353.72;5094512;28;20035;-68
2023/08/08 00:28:46;;;;;;;19.05;12.63;;;;;;;13.19;100.00;101345.06;5094296;28;20051;-67
2023/08/08 00:31:11;;;;;;;19.90;12.63;;;;;;;13.20;100.00;101343.94;5094411;28;20020;-67
2023/08/08 00:33:37;;;;;;;19.27;12.57;;;;;;;13.20;100.00;101335.59;5094370;28;20031;-67
2023/08/08 00:36:02;;;;;;;20.20;12.65;;;;;;;13.19;100.00;101339.50;5094409;28;20024;-67
2023/08/08 00:38:28;;;;;;;19.92;12.82;;;;;;;13.19;100.00;101328.38;5094358;28;20024;-68
2023/08/08 00:40:53;;;;;;;19.02;12.60;;;;;;;13.19;100.00;101334.78;5094236;28;20028;-68
2023/08/08 00:43:18;;;;;;;21.02;12.73;;;;;;;13.18;100.00;101333.13;5092758;28;20425;-67
2023/08/08 00:45:44;;;;;;;18.48;12.90;;;;;;;13.19;100.00;101339.50;5094131;28;20390;-68
2023/08/08 00:48:11;;;;;;;20.13;12.70;;;;;;;13.18;100.00;101335.06;5094076;28;20036;-67
2023/08/08 00:50:37;;;;;;;19.10;13.02;;;;;;;13.18;100.00;101333.13;5094049;28;20031;-67
2023/08/08 00:53:06;;;;;;;19.17;13.50;;;;;;;13.18;100.00;101330.34;5094057;28;20028;-67
2023/08/08 00:55:31;;;;;;;19.58;13.02;;;;;;;13.21;100.00;101334.47;5093860;28;20056;-67
2023/08/08 00:57:57;;;;;;;18.90;13.10;;;;;;;13.20;100.00;101332.81;5094070;28;20060;-67
2023/08/08 01:00:22;;;;;;;19.95;13.70;;;;;;;13.22;100.00;101331.41;5093837;28;20103;-67
2023/08/08 01:02:47;;;;;;;19.15;12.68;;;;;;;13.25;100.00;101330.75;5093927;28;20028;-66
2023/08/08 01:05:13;;;;;;;20.73;13.73;;;;;;;13.25;100.00;101327.16;5093893;28;20161;-67
2023/08/08 01:07:47;;;;;;;20.23;13.02;;;;;;;13.29;100.00;101330.94;5092455;28;20024;-67
2023/08/08 01:10:16;;;;;;;19.75;12.68;;;;;;;13.27;100.00;101334.03;5093769;28;20550;-67
2023/08/08 01:12:48;;;;;;;20.58;13.27;;;;;;;13.31;100.00;101328.69;5092837;28;20052;-66
2023/08/08 01:15:14;;;;;;;19.23;13.10;;;;;;;13.29;100.00;101330.94;5093693;28;20114;-67
2023/08/08 01:17:42;;;;;;;19.98;13.15;;;;;;;13.30;100.00;101327.03;5092340;28;20058;-67
2023/08/08 01:20:08;;;;;;;20.48;13.25;;;;;;;13.31;100.00;101325.09;5093717;28;20097;-67
2023/08/08 01:22:42;;;;;;;21.60;13.23;;;;;;;13.30;100.00;101323.44;5093640;28;20032;-67
2023/08/08 01:25:08;;;;;;;19.40;13.80;;;;;;;13.28;100.00;101323.75;5093868;28;20035;-67
2023/08/08 01:27:34;;;;;;;18.80;12.82;;;;;;;13.29;100.00;101319.00;5093691;28;20032;-67
2023/08/08 01:29:59;;;;;;;21.65;13.13;;;;;;;13.26;100.00;101318.50;5093674;28;20024;-67
2023/08/08 01:32:24;;;;;;;21.00;13.32;;;;;;;13.25;100.00;101330.75;5093730;28;20080;-67
2023/08/08 01:34:50;;;;;;;20.67;13.80;;;;;;;13.24;100.00;101328.28;5092281;28;20039;-67
2023/08/08 01:37:44;;;;;;;21.55;14.32;;;;;;;13.22;100.00;101316.66;5093443;28;20103;-67
2023/08/08 01:40:15;;;;;;;19.30;13.60;;;;;;;13.17;100.00;101319.56;5087526;28;20409;-67
2023/08/08 01:42:43;;;;;;;20.23;14.15;;;;;;;13.15;100.00;101322.63;5093559;28;20032;-67
2023/08/08 01:45:10;;;;;;;20.55;14.13;;;;;;;13.14;100.00;101321.00;5093437;28;20476;-66
2023/08/08 01:47:35;;;;;;;21.83;14.43;;;;;;;13.13;100.00;101322.13;5093195;28;20035;-66
2023/08/08 01:50:00;;;;;;;20.75;14.32;;;;;;;13.14;100.00;101317.41;5093191;28;20020;-66
2023/08/08 01:52:26;;;;;;;21.40;14.18;;;;;;;13.13;100.00;101315.75;5093223;28;20043;-66
2023/08/08 01:54:52;;;;;;;21.15;14.43;;;;;;;13.11;100.00;101308.56;5091782;28;20051;-67
2023/08/08 01:57:17;;;;;;;20.42;14.13;;;;;;;13.12;100.00;101312.19;5093071;28;20035;-66
2023/08/08 01:59:45;;;;;;;20.10;14.18;;;;;;;13.08;100.00;101309.16;5093132;28;20028;-67
2023/08/08 02:02:10;;;;;;;21.88;14.43;;;;;;;13.05;100.00;101298.72;5093002;28;20035;-66
2023/08/08 02:04:36;;;;;;;21.73;14.00;;;;;;;13.04;100.00;101297.06;5092966;28;20027;-66
2023/08/08 02:07:01;;;;;;;20.92;14.13;;;;;;;13.03;100.00;101298.19;5092901;28;20035;-66
2023/08/08 02:09:27;;;;;;;21.40;13.88;;;;;;;13.02;100.00;101301.28;5092739;28;20456;-66
2023/08/08 02:11:52;;;;;;;20.63;14.10;;;;;;;13.02;100.00;101304.88;5092910;28;20035;-66
2023/08/08 02:14:17;;;;;;;21.27;14.57;;;;;;;13.01;100.00;101302.41;5092705;28;20022;-67
2023/08/08 02:16:42;;;;;;;23.00;14.10;;;;;;;12.97;100.00;101293.06;5092612;28;20410;-66
2023/08/08 02:19:08;;;;;;;22.30;14.15;;;;;;;12.93;100.00;101298.41;5092533;28;20452;-66
2023/08/08 02:21:33;;;;;;;22.30;14.70;;;;;;;12.90;100.00;101285.97;5091137;28;20542;-67
2023/08/08 02:23:58;;;;;;;24.45;14.70;;;;;;;12.87;100.00;101286.59;5092330;28;20388;-67
2023/08/08 02:26:25;;;;;;;21.73;14.38;;;;;;;12.84;100.00;101292.78;5092339;28;20537;-66
2023/08/08 02:28:50;;;;;;;21.02;14.27;;;;;;;12.83;100.00;101296.69;5092131;28;20048;-66
2023/08/08 02:31:20;;;;;;;23.10;15.23;;;;;;;12.84;100.00;101291.94;5092305;28;20044;-67
2023/08/08 02:33:47;;;;;;;21.23;15.15;;;;;;;12.84;100.00;101284.44;5092682;28;20027;-67
2023/08/08 02:36:13;;;;;;;22.92;14.65;;;;;;;12.83;100.00;101282.81;5092266;28;20036;-67
2023/08/08 02:38:38;;;;;;;26.08;15.57;;;;;;;12.83;100.00;101288.34;5092149;28;20020;-66
2023/08/08 02:41:03;;;;;;;21.80;15.18;;;;;;;12.84;100.00;101275.28;5092170;28;20442;-67
2023/08/08 02:43:29;;;;;;;22.10;15.25;;;;;;;12.84;100.00;101278.91;5092074;28;20107;-66
2023/08/08 02:45:54;;;;;;;22.50;14.77;;;;;;;12.85;100.00;101285.25;5092060;28;20020;-67
2023/08/08 02:48:19;;;;;;;23.25;14.65;;;;;;;12.86;100.00;101273.03;5092011;28;20038;-66
2023/08/08 02:50:45;;;;;;;20.75;14.95;;;;;;;12.84;100.00;101278.91;5091832;28;20027;-66
2023/08/08 02:53:10;;;;;;;22.35;15.55;;;;;;;12.85;100.00;101265.81;5091876;28;20028;-67
2023/08/08 02:55:36;;;;;;;22.98;16.00;;;;;;;12.84;100.00;101259.47;5092030;28;20056;-67
2023/08/08 02:58:01;;;;;;;22.33;15.75;;;;;;;12.84;100.00;101259.47;5091982;28;20119;-67
2023/08/08 03:00:27;;;;;;;22.95;15.63;;;;;;;12.82;100.00;101253.41;5091813;28;20092;-66
2023/08/08 03:02:52;;;;;;;25.15;16.27;;;;;;;12.85;100.00;101263.84;5091715;28;20028;-67
2023/08/08 03:05:17;;;;;;;25.02;15.68;;;;;;;12.85;100.00;101258.31;5091648;28;20030;-67
2023/08/08 03:07:43;;;;;;;22.50;15.63;;;;;;;12.85;100.00;101258.31;5091544;28;20051;-67
2023/08/08 03:10:08;;;;;;;23.85;16.23;;;;;;;12.84;100.00;101255.84;5091554;28;20455;-67
2023/08/08 03:12:34;;;;;;;23.23;15.95;;;;;;;12.82;100.00;101267.28;5091548;28;20036;-66
2023/08/08 03:14:59;;;;;;;22.08;15.95;;;;;;;12.81;100.00;101268.41;5091539;28;20059;-67
2023/08/08 03:17:24;;;;;;;22.50;16.42;;;;;;;12.82;100.00;101269.22;5091497;28;20085;-67
2023/08/08 03:19:50;;;;;;;24.17;15.80;;;;;;;12.80;100.00;101256.47;5091432;28;20157;-67
2023/08/08 03:22:15;;;;;;;23.90;16.20;;;;;;;12.78;100.00;101260.69;5091579;28;20424;-67
2023/08/08 03:24:40;;;;;;;23.23;16.27;;;;;;;12.76;100.00;101265.72;5091420;28;20032;-67
2023/08/08 03:27:06;;;;;;;21.50;15.75;;;;;;;12.74;100.00;101256.91;5091415;28;20028;-67
2023/08/08 03:29:31;;;;;;;24.15;17.20;;;;;;;12.71;100.00;101261.09;5091113;28;20044;-67
2023/08/08 03:31:56;;;;;;;24.00;16.58;;;;;;;12.68;100.00;101258.13;5091240;28;20028;-67
2023/08/08 03:34:22;;;;;;;28.90;16.52;;;;;;;12.67;100.00;101256.50;5091317;28;20028;-67
2023/08/08 03:36:47;;;;;;;23.35;16.30;;;;;;;12.66;100.00;101261.22;5090851;28;20028;-67
2023/08/08 03:39:12;;;;;;;24.45;16.65;;;;;;;12.64;100.00;101269.88;5091181;28;20486;-67
2023/08/08 03:41:38;;;;;;;23.45;17.08;;;;;;;12.63;100.00;101270.16;5091155;28;20024;-67
2023/08/08 03:44:03;;;;;;;24.15;16.65;;;;;;;12.61;100.00;101264.13;5091132;28;20032;-67
2023/08/08 03:46:29;;;;;;;26.92;17.38;;;;;;;12.58;100.00;101265.53;5091168;28;20024;-68
2023/08/08 03:48:55;;;;;;;25.10;16.90;;;;;;;12.57;100.00;101257.53;5091297;28;20031;-66
2023/08/08 03:51:20;;;;;;;23.60;17.48;;;;;;;12.56;100.00;101258.66;5091038;28;20024;-67
2023/08/08 03:53:46;;;;;;;24.15;17.65;;;;;;;12.56;100.00;101255.88;5091134;28;20476;-67
2023/08/08 03:56:11;;;;;;;26.98;18.45;;;;;;;12.55;100.00;101245.91;5091236;28;20016;-67
2023/08/08 03:58:38;;;;;;;25.33;17.73;;;;;;;12.54;100.00;101250.66;5091169;28;20024;-67
2023/08/08 04:01:03;;;;;;;26.00;17.77;;;;;;;12.52;100.00;101250.13;5091117;28;20077;-67
2023/08/08 04:03:28;;;;;;;26.00;17.10;;;;;;;12.49;100.00;101250.75;5091061;28;20085;-67
2023/08/08 04:05:54;;;;;;;27.85;18.45;;;;;;;12.47;100.00;101250.22;5091134;28;20024;-67
2023/08/08 04:08:19;;;;;;;28.30;18.20;;;;;;;12.44;100.00;101250.88;5090975;28;20483;-66
2023/08/08 04:10:47;;;;;;;25.83;18.33;;;;;;;12.37;100.00;101245.72;5090828;28;20111;-67
2023/08/08 04:13:12;;;;;;;28.00;18.42;;;;;;;12.40;100.00;101244.28;5090776;28;20028;-67
2023/08/08 04:15:38;;;;;;;26.40;17.75;;;;;;;12.39;100.00;101246.25;5090779;28;20039;-67
2023/08/08 04:18:06;;;;;;;25.58;19.02;;;;;;;12.35;100.00;101238.84;5090730;28;20040;-67
2023/08/08 04:20:31;;;;;;;25.23;18.23;;;;;;;12.35;100.00;101247.97;5091030;28;20027;-67
2023/08/08 04:22:57;;;;;;;26.67;18.20;;;;;;;12.27;100.00;101235.66;5090765;28;20028;-67
2023/08/08 04:25:23;;;;;;;26.60;18.13;;;;;;;12.30;100.00;101240.59;5090611;28;20032;-67
2023/08/08 04:27:48;;;;;;;27.17;17.40;;;;;;;12.29;100.00;101238.94;5090487;28;20454;-66
2023/08/08 04:30:13;;;;;;;28.58;18.65;;;;;;;12.29;100.00;101236.16;5090665;28;20032;-67
2023/08/08 04:32:39;;;;;;;26.45;17.50;;;;;;;12.27;100.00;101229.28;5089282;28;20032;-67
2023/08/08 04:35:04;;;;;;;24.45;17.10;;;;;;;12.29;100.00;101238.13;5090581;28;20380;-66
2023/08/08 04:37:29;;;;;;;26.27;17.65;;;;;;;12.27;100.00;101235.66;5090586;28;20031;-67
2023/08/08 04:39:55;;;;;;;27.88;17.30;;;;;;;12.28;100.00;101240.06;5089253;28;20032;-66
2023/08/08 04:42:20;;;;;;;26.23;17.38;;;;;;;12.29;100.00;101247.25;5090504;28;20101;-69
2023/08/08 04:44:46;;;;;;;26.58;17.10;;;;;;;12.31;100.00;101249.75;5090433;28;20024;-67
2023/08/08 04:47:11;;;;;;;27.23;16.95;;;;;;;12.30;100.00;101250.88;5090531;28;20066;-66
2023/08/08 04:49:36;;;;;;;25.38;17.05;;;;;;;12.32;100.00;101251.38;5093426;28;20059;-67
2023/08/08 04:52:02;;;;;;;25.75;17.10;;;;;;;12.33;100.00;101247.47;5094043;28;20126;-66
2023/08/08 04:54:27;;;;;;;27.77;17.52;;;;;;;12.35;100.00;101249.94;5094086;28;20028;-67
2023/08/08 04:56:53;;;;;;;27.63;17.20;;;;;;;12.36;100.00;101257.94;5094092;28;20024;-69
2023/08/08 04:59:18;;;;;;;25.52;17.40;;;;;;;12.38;100.00;101247.38;5092672;28;20028;-67
2023/08/08 05:01:43;;;;;;;25.88;18.00;;;;;;;12.41;100.00;101245.94;5094143;28;20020;-67
2023/08/08 05:04:09;;;;;;;25.40;16.13;;;;;;;12.45;100.00;101245.00;5094056;28;20031;-68
2023/08/08 05:06:34;;;;;;;25.33;16.20;;;;;;;12.52;100.00;101244.59;5094038;28;20032;-68
2023/08/08 05:09:00;;;;;;;25.33;16.60;;;;;;;12.58;100.00;101240.56;5094108;28;20065;-68
2023/08/08 05:11:25;;;;;;;25.13;16.35;;;;;;;12.61;100.00;101245.50;5094176;28;20429;-68
2023/08/08 05:13:50;;;;;;;26.27;16.50;;;;;;;12.66;100.00;101238.22;5094106;28;20110;-69
2023/08/08 05:16:15;;;;;;;27.50;16.70;;;;;;;12.65;100.00;101242.94;5094182;28;20035;-67
2023/08/08 05:18:44;;;;;;;24.35;16.23;;;;;;;12.64;100.00;101247.66;5094050;28;20438;-67
2023/08/08 05:21:09;;;;;;;25.55;16.27;;;;;;;12.67;100.00;101248.16;5094021;28;20055;-67
2023/08/08 05:23:35;;;;;;;23.85;15.93;;;;;;;12.68;100.00;101244.25;5093474;28;20479;-67
2023/08/08 05:26:00;;;;;;;25.13;16.50;;;;;;;12.70;100.00;101253.09;5093558;28;20102;-67
2023/08/08 05:28:25;;;;;;;25.25;15.90;;;;;;;12.73;100.00;101244.97;5093146;28;20503;-67
2023/08/08 05:30:50;;;;;;;24.58;16.27;;;;;;;12.76;100.00;101246.28;5093304;28;20021;-67
2023/08/08 05:33:16;;;;;;;27.38;16.48;;;;;;;12.80;100.00;101241.78;5093459;28;20123;-67
2023/08/08 05:35:41;;;;;;;27.13;16.40;;;;;;;12.86;100.00;101240.50;5093328;28;20031;-67
2023/08/08 05:38:07;;;;;;;24.98;16.40;;;;;;;12.98;100.00;101241.94;5093379;28;20016;-67
2023/08/08 05:40:35;;;;;;;26.60;15.65;;;;;;;13.06;100.00;101246.75;5093183;28;20036;-68
2023/08/08 05:43:00;;;;;;;27.35;16.55;;;;;;;13.10;100.00;101247.78;5093029;28;20057;-69
2023/08/08 05:45:25;;;;;;;25.88;15.68;;;;;;;13.16;100.00;101252.06;5091661;28;20024;-67
2023/08/08 05:47:51;;;;;;;24.08;15.63;;;;;;;13.21;100.00;101251.13;5093184;28;20096;-68
2023/08/08 05:50:16;;;;;;;24.25;15.23;;;;;;;13.29;100.00;101255.91;5093016;28;20020;-67
2023/08/08 05:52:41;;;;;;;25.45;15.93;;;;;;;13.35;100.00;101245.50;5093126;28;20035;-67
2023/08/08 05:55:07;;;;;;;27.83;15.13;;;;;;;13.41;100.00;101247.88;5091497;28;20024;-67
2023/08/08 05:57:32;;;;;;;28.23;15.75;;;;;;;13.48;100.00;101249.38;5093069;28;20487;-68
2023/08/08 05:59:58;;;;;;;26.73;16.08;;;;;;;13.53;100.00;101240.94;5092723;28;20053;-68
2023/08/08 06:02:23;;;;;;;25.70;15.65;;;;;;;13.57;100.00;101253.03;5092942;28;20024;-67
2023/08/08 06:04:48;;;;;;;23.63;15.95;;;;;;;13.66;100.00;101258.69;5092940;28;20769;-68
2023/08/08 06:07:14;;;;;;;27.92;16.15;;;;;;;13.73;100.00;101245.97;5092854;28;20113;-69
2023/08/08 06:09:39;;;;;;;27.13;15.82;;;;;;;13.81;100.00;101238.00;5092720;28;20448;-68
2023/08/08 06:12:05;;;;;;;24.73;15.70;;;;;;;13.83;100.00;101242.09;5092608;28;20055;-68
2023/08/08 06:14:30;;;;;;;26.02;15.43;;;;;;;13.85;100.00;101250.09;5092536;28;20455;-66
2023/08/08 06:16:56;;;;;;;23.65;15.88;;;;;;;13.92;100.00;101250.50;5092559;28;20510;-66
2023/08/08 06:19:21;;;;;;;24.13;15.20;;;;;;;13.97;100.00;101255.91;5092455;28;20414;-66
2023/08/08 06:21:47;;;;;;;25.95;15.52;;;;;;;14.03;100.00;101257.41;5092310;28;20352;-66
2023/08/08 06:24:12;;;;;;;24.80;14.52;;;;;;;14.09;100.00;101263.66;5092370;28;20024;-66
2023/08/08 06:26:38;;;;;;;26.60;15.07;;;;;;;14.18;100.00;101260.91;5092212;28;20023;-66
2023/08/08 06:29:03;;;;;;;24.98;16.42;;;;;;;14.25;100.00;101252.94;5092285;28;20086;-68
2023/08/08 06:31:29;;;;;;;24.50;14.95;;;;;;;14.39;100.00;101263.94;5092301;28;20055;-68
2023/08/08 06:33:55;;;;;;;23.85;15.15;;;;;;;14.43;100.00;101266.91;5092200;28;20031;-67
2023/08/08 06:36:20;;;;;;;22.45;14.77;;;;;;;14.44;100.00;101262.97;5092180;28;20031;-66
2023/08/08 06:38:45;;;;;;;24.17;15.02;;;;;;;14.45;100.00;101259.88;5092224;28;20039;-66
2023/08/08 06:41:11;;;;;;;24.17;14.60;;;;;;;14.49;100.00;101262.84;5092028;28;20522;-66
2023/08/08 06:43:36;;;;;;;22.25;13.93;;;;;;;14.48;100.00;101261.19;5092160;28;20550;-68
2023/08/08 06:46:01;;;;;;;24.05;14.00;;;;;;;14.51;100.00;101271.69;5091927;28;20077;-68
2023/08/08 06:48:27;;;;;;;25.40;15.00;;;;;;;14.49;100.00;101268.41;5091805;28;20340;-69
2023/08/08 06:50:52;;;;;;;23.23;14.60;;;;;;;14.57;100.00;101273.19;5090214;28;20032;-66
2023/08/08 06:53:18;;;;;;;23.20;14.38;;;;;;;14.58;100.00;101257.28;5091623;28;20032;-66
2023/08/08 06:55:43;;;;;;;23.20;14.82;;;;;;;14.72;100.00;101280.31;5091591;28;20063;-67
2023/08/08 06:58:08;;;;;;;23.50;14.50;;;;;;;14.81;100.00;101274.72;5091678;28;20081;-67
2023/08/08 07:00:34;;;;;;;22.73;14.80;;;;;;;14.87;100.00;101272.63;5091646;28;20548;-67
2023/08/08 07:02:59;;;;;;;24.67;15.30;;;;;;;14.87;100.00;101284.59;5091698;28;20119;-67
2023/08/08 07:05:25;;;;;;;25.70;15.02;;;;;;;14.84;100.00;101281.63;5091672;28;20035;-66
2023/08/08 07:07:51;;;;;;;22.73;14.63;;;;;;;14.80;100.00;101282.28;5091402;28;20364;-68
2023/08/08 07:10:17;;;;;;;23.65;14.75;;;;;;;14.84;100.00;101282.44;5091142;28;20031;-66
2023/08/08 07:12:43;;;;;;;23.20;15.02;;;;;;;14.91;100.00;101277.22;5091030;28;20127;-66
2023/08/08 07:15:09;;;;;;;23.88;14.50;;;;;;;15.00;100.00;101279.19;5091513;28;20046;-66
2023/08/08 07:17:34;;;;;;;23.23;14.27;;;;;;;15.01;100.00;101275.25;5091368;28;20038;-66
2023/08/08 07:20:00;;;;;;;24.58;14.65;;;;;;;15.06;100.00;101275.91;5091250;28;20440;-66
2023/08/08 07:22:25;;;;;;;25.63;14.63;;;;;;;15.22;100.00;101276.28;5091160;28;20448;-66
2023/08/08 07:24:51;;;;;;;22.98;14.07;;;;;;;15.38;100.00;101278.56;5091247;28;20104;-66
2023/08/08 07:27:16;;;;;;;21.20;13.90;;;;;;;15.48;100.00;101275.44;5091018;28;20170;-66
2023/08/08 07:29:41;;;;;;;23.05;14.32;;;;;;;15.60;100.00;101278.38;5090966;28;20051;-66
2023/08/08 07:32:08;;;;;;;22.73;14.27;;;;;;;15.71;100.00;101269.69;5091361;28;20105;-69
2023/08/08 07:34:33;;;;;;;21.40;13.93;;;;;;;15.79;100.00;101281.94;5091114;28;20024;-66
2023/08/08 07:36:59;;;;;;;24.55;13.52;;;;;;;15.82;100.00;101276.53;5091197;28;20494;-67
2023/08/08 07:39:25;;;;;;;22.42;14.00;;;;;;;15.80;100.00;101253.75;5089868;28;20388;-66
2023/08/08 07:41:50;;;;;;;20.45;13.50;;;;;;;15.87;100.00;101264.44;5091610;28;20035;-66
2023/08/08 07:44:16;;;;;;;23.15;13.10;;;;;;;15.85;100.00;101277.88;5091205;28;20032;-67
2023/08/08 07:46:41;;;;;;;21.30;12.48;;;;;;;15.87;100.00;101275.59;5091244;28;20858;-68
2023/08/08 07:49:06;;;;;;;21.52;12.38;;;;;;;15.92;99.95;101266.22;5090992;28;20479;-66
2023/08/08 07:51:32;;;;;;;20.92;13.18;;;;;;;16.00;99.97;101265.38;5089493;28;20114;-66
2023/08/08 07:53:58;;;;;;;20.83;12.85;;;;;;;16.04;99.11;101261.56;5091023;28;20032;-67
2023/08/08 07:56:24;;;;;;;20.13;12.40;;;;;;;16.11;97.72;101266.63;5089405;28;20089;-66
2023/08/08 07:58:49;;;;;;;18.85;11.48;;;;;;;16.15;96.55;101270.41;5090880;28;20130;-68
2023/08/08 08:01:14;;;;;;;18.77;11.60;;;;;;;16.20;nan;101266.59;5090912;28;20032;-68
2023/08/08 08:03:40;;;;;;;20.25;11.10;;;;;;;16.24;92.86;101272.34;5091037;28;20044;-66
2023/08/08 08:06:05;;;;;;;17.13;11.27;;;;;;;16.24;93.28;101267.59;5089531;28;20032;-67
2023/08/08 08:08:31;;;;;;;18.67;11.10;;;;;;;16.20;92.45;101269.38;5090864;28;20466;-67
2023/08/08 08:10:56;;;;;;;20.23;11.85;;;;;;;16.27;91.99;101266.09;5090662;28;20444;-67
2023/08/08 08:13:21;;;;;;;19.65;11.05;;;;;;;16.30;89.03;101271.81;5090745;28;20031;-67
2023/08/08 08:15:47;;;;;;;20.08;11.02;;;;;;;16.32;89.68;101272.31;5090752;28;20020;-66
2023/08/08 08:18:14;;;;;;;18.45;11.02;;;;;;;16.43;87.39;101280.31;5090699;28;20067;-66
2023/08/08 08:20:39;;;;;;;17.75;10.95;;;;;;;16.47;87.54;101272.88;5090687;28;20028;-67
2023/08/08 08:23:04;;;;;;;17.02;10.52;;;;;;;16.56;86.76;101270.06;5092979;28;20038;-66
2023/08/08 08:25:31;;;;;;;17.00;10.95;;;;;;;16.65;88.01;101268.03;5094519;28;20028;-67
2023/08/08 08:27:57;;;;;;;19.35;11.10;;;;;;;16.73;88.01;101275.53;5094506;28;20063;-67
2023/08/08 08:30:25;;;;;;;17.65;10.85;;;;;;;16.87;86.32;101271.66;5094588;28;20040;-67
2023/08/08 08:32:51;;;;;;;17.38;10.45;;;;;;;17.04;85.15;101271.59;5094587;28;20039;-67
2023/08/08 08:35:17;;;;;;;15.90;10.10;;;;;;;17.15;85.19;101269.19;5094844;28;20086;-67
2023/08/08 08:37:42;;;;;;;16.27;10.30;;;;;;;17.18;83.25;101268.53;5093280;28;20024;-67
2023/08/08 08:40:08;;;;;;;16.65;10.48;;;;;;;17.20;82.05;101268.97;5094418;28;20028;-66
2023/08/08 08:42:34;;;;;;;18.48;11.10;;;;;;;17.22;85.19;101260.28;5094412;28;20024;-67
2023/08/08 08:45:02;;;;;;;17.10;10.52;;;;;;;17.31;85.72;101261.81;5092824;28;20039;-67
2023/08/08 08:47:30;;;;;;;19.40;11.15;;;;;;;17.35;85.39;101258.34;5094303;28;20059;-67
2023/08/08 08:49:57;;;;;;;18.40;11.07;;;;;;;17.48;82.84;101264.81;5094113;28;20034;-67
2023/08/08 08:52:22;;;;;;;17.23;10.60;;;;;;;17.66;81.21;101266.28;5094118;28;20028;-67
2023/08/08 08:54:48;;;;;;;16.52;10.20;;;;;;;17.80;80.37;101270.75;5093988;28;20498;-67
2023/08/08 08:57:14;;;;;;;16.63;10.30;;;;;;;17.86;78.13;101278.56;5094107;28;20115;-67
2023/08/08 08:59:39;;;;;;;18.92;10.23;;;;;;;17.97;76.44;101284.59;5092552;28;20130;-67
2023/08/08 09:02:06;;;;;;;15.40;9.68;;;;;;;18.06;75.51;101270.47;5093898;28;20031;-67
2023/08/08 09:04:32;;;;;;;14.85;10.25;;;;;;;18.09;74.74;101262.19;5094098;28;20535;-66
2023/08/08 09:06:58;;;;;;;15.82;10.85;;;;;;;18.12;75.53;101260.72;5093848;28;20035;-66
2023/08/08 09:09:24;;;;;;;16.58;10.65;;;;;;;18.13;75.88;101264.31;5093721;28;20066;-66
2023/08/08 09:11:51;;;;;;;15.23;9.73;;;;;;;18.20;76.71;101265.38;5093831;28;20105;-67
2023/08/08 09:14:23;;;;;;;17.48;10.32;;;;;;;18.28;76.70;101274.81;5092282;28;20035;-66
2023/08/08 09:16:51;;;;;;;16.40;10.48;;;;;;;18.47;79.10;101265.88;5092165;28;20491;-66
2023/08/08 09:19:20;;;;;;;16.67;10.15;;;;;;;18.54;76.34;101277.28;5093942;28;20081;-68
2023/08/08 09:21:46;;;;;;;18.33;10.63;;;;;;;18.41;75.68;101275.69;5093713;28;20174;-67
2023/08/08 09:24:12;;;;;;;18.00;10.40;;;;;;;18.22;74.89;101265.88;5093534;28;20116;-67
2023/08/08 09:26:39;;;;;;;17.23;10.40;;;;;;;18.05;76.57;101271.66;5093518;28;20051;-67
2023/08/08 09:29:04;;;;;;;17.27;10.40;;;;;;;17.84;78.43;101286.53;5093375;28;20040;-67
2023/08/08 09:31:30;;;;;;;18.02;10.50;;;;;;;17.75;79.30;101283.00;5093415;28;20034;-67
2023/08/08 09:33:59;;;;;;;16.38;10.75;;;;;;;17.73;80.08;101286.13;5092789;28;20028;-67
2023/08/08 09:36:25;;;;;;;17.92;11.18;;;;;;;17.68;80.14;101279.91;5093454;28;20099;-67
2023/08/08 09:38:51;;;;;;;18.08;10.48;;;;;;;17.85;80.48;101282.56;5093792;28;20024;-67
2023/08/08 09:41:16;;;;;;;16.17;10.60;;;;;;;17.99;81.01;101278.63;5093351;28;20165;-66
2023/08/08 09:43:44;;;;;;;18.30;10.75;;;;;;;17.97;78.42;101279.00;5093371;28;20111;-67
2023/08/08 09:46:10;;;;;;;16.85;10.38;;;;;;;17.98;78.54;101282.59;5091768;28;20487;-67
2023/08/08 09:48:38;;;;;;;18.45;10.52;;;;;;;17.90;77.29;101293.53;5092961;28;20055;-67
2023/08/08 09:51:04;;;;;;;18.90;10.50;;;;;;;17.93;78.03;101290.03;5092813;28;20028;-67
2023/08/08 09:53:30;;;;;;;16.98;10.60;;;;;;;18.03;78.81;101293.59;5092975;28;20494;-67
2023/08/08 09:55:56;;;;;;;17.77;10.27;;;;;;;18.20;77.92;101282.19;5093015;28;20061;-67
2023/08/08 09:58:22;;;;;;;15.82;10.50;;;;;;;18.19;75.84;101293.72;5092803;28;20486;-67
2023/08/08 10:00:51;;;;;;;16.00;9.82;;;;;;;18.14;76.44;101285.56;5092692;28;20391;-67
2023/08/08 10:03:17;;;;;;;16.95;10.80;;;;;;;18.11;76.79;101289.88;5092860;28;20025;-67
2023/08/08 10:05:43;;;;;;;16.63;9.95;;;;;;;18.22;77.52;101288.25;5092781;28;20039;-67
2023/08/08 10:08:09;;;;;;;15.43;10.00;;;;;;;18.33;75.75;101276.59;5092769;28;20028;-67
2023/08/08 10:10:35;;;;;;;14.27;9.60;;;;;;;18.51;74.18;101265.97;5092518;28;20573;-66
2023/08/08 10:13:01;;;;;;;17.48;10.50;;;;;;;18.64;73.64;101263.97;5092539;28;20027;-67
2023/08/08 10:15:27;;;;;;;13.85;9.70;;;;;;;18.82;73.43;101268.16;5091140;28;20119;-67
2023/08/08 10:17:57;;;;;;;16.02;10.00;;;;;;;19.00;71.55;101279.97;5092400;28;20448;-67
2023/08/08 10:20:25;;;;;;;13.75;10.05;;;;;;;19.00;70.05;101274.38;5092685;28;20106;-67
2023/08/08 10:22:52;;;;;;;14.85;9.95;;;;;;;19.09;69.25;101268.59;5092241;28;20019;-67
2023/08/08 10:25:28;;;;;;;15.95;9.90;;;;;;;19.07;69.95;101272.94;5092280;28;20028;-67
2023/08/08 10:28:11;;;;;;;17.48;10.00;;;;;;;18.96;69.04;101272.63;5090631;28;20397;-67
2023/08/08 10:30:43;;;;;;;15.23;9.70;;;;;;;19.08;70.61;101275.38;5090695;28;20036;-67
2023/08/08 10:33:16;;;;;;;17.63;10.40;;;;;;;19.08;71.27;101272.56;5092142;28;20028;-66
2023/08/08 10:35:51;;;;;;;15.05;10.05;;;;;;;19.15;71.40;101278.41;5092310;28;20032;-67
2023/08/08 10:38:16;;;;;;;14.07;9.30;;;;;;;19.09;69.57;101290.22;5091988;28;20028;-66
2023/08/08 10:40:42;;;;;;;17.33;9.57;;;;;;;19.03;69.68;101281.25;5091984;28;20084;-67
2023/08/08 10:43:12;;;;;;;17.27;9.85;;;;;;;18.81;70.08;101279.75;5091951;28;20517;-67
2023/08/08 10:45:43;;;;;;;14.93;9.60;;;;;;;18.88;69.45;101279.16;5091187;28;20503;-67
2023/08/08 10:48:09;;;;;;;15.43;8.82;;;;;;;19.05;68.55;101276.09;5092076;28;20101;-66
2023/08/08 10:50:39;;;;;;;15.50;9.50;;;;;;;19.18;68.42;101282.50;5091738;28;20032;-66
2023/08/08 10:53:09;;;;;;;15.48;9.38;;;;;;;19.27;68.08;101277.56;5091942;28;20023;-67
2023/08/08 10:55:36;;;;;;;12.73;9.48;;;;;;;19.40;68.07;101277.53;5091746;28;20032;-66
2023/08/08 10:58:08;;;;;;;14.45;9.55;;;;;;;19.47;67.02;101280.53;5091664;28;20046;-67
2023/08/08 11:00:36;;;;;;;15.57;9.85;;;;;;;19.40;67.48;101275.53;5091674;28;20031;-67